CW5193 New Chelsea NF CA current weather conditions

sailwx.info

Wind from 209 at 10 knots gusting 15

Air temperature -1.1° C
Dewpoint -4.4° C

Last reported at 2016-Feb-07 20:41 UTC.
Time now 2016-Feb-07 21:41 UTC

Location: N 48°02' W 053°13'.
View on Google Maps.

See reports from other nearby stations

  
Tides and Currents Weather Stations Pressure Air Temp Water Temp Dewpoint Dewpoint Depression Visibility Wind Speed Wind Dir Waves Ship Positions
date/time (UTC)wind fromknots sea level pressurealtimeterstation pressurevisibilityair tempwater tempwave heightnotes
2016-Feb-07 20:41 209 10 gusting 15 -1.1
2016-Feb-07 20:31 191 9 gusting 13 -1.1
2016-Feb-07 20:21 234 10 gusting 14 -1.1
2016-Feb-07 20:11 202 9 gusting 13 -1.1
2016-Feb-07 20:01 209 8 gusting 16 -1.1
2016-Feb-07 19:51 257 12 gusting 19 -1.1
2016-Feb-07 19:41 238 13 gusting 19 -1.1
2016-Feb-07 19:31 216 9 gusting 19 -1.1
2016-Feb-07 19:21 245 13 gusting 18 -1.1
2016-Feb-07 19:11 230 14 gusting 19 -1.1
2016-Feb-07 19:01 223 6 gusting 17 -0.6
2016-Feb-07 18:51 223 10 gusting 18 -0.6
2016-Feb-07 18:41 242 7 gusting 19 -0.6
2016-Feb-07 18:31 253 11 gusting 21 -0.6
2016-Feb-07 18:21 242 17 gusting 23 -0.6
2016-Feb-07 18:11 209 10 gusting 18 -0.6
2016-Feb-07 18:01 233 5 gusting 15 -1.1
2016-Feb-07 17:51 247 11 gusting 18 -1.1
2016-Feb-07 17:41 229 12 gusting 19 -1.1
2016-Feb-07 17:31 229 13 gusting 21 -1.1
2016-Feb-07 17:21 234 10 gusting 17 -1.1
2016-Feb-07 17:11 221 10 gusting 16 -1.1
2016-Feb-07 17:01 267 8 gusting 15 -1.7
2016-Feb-07 16:51 202 9 gusting 13 -1.7
2016-Feb-07 16:41 219 9 gusting 14 -1.7
2016-Feb-07 16:31 223 7 gusting 12 -1.7
2016-Feb-07 16:21 226 6 gusting 15 -2.2
2016-Feb-07 16:11 205 8 gusting 13 -2.2
2016-Feb-07 16:01 240 6 gusting 13 -2.2
2016-Feb-07 15:51 244 8 gusting 14 -2.2
2016-Feb-07 15:41 256 6 gusting 14 -2.8
2016-Feb-07 15:31 248 5 gusting 12 -2.8
2016-Feb-07 15:21 234 8 gusting 12 -2.8
2016-Feb-07 15:11 223 9 gusting 14 -2.8
2016-Feb-07 15:01 244 6 gusting 11 -2.8
2016-Feb-07 14:51 269 9 gusting 12 -2.8
2016-Feb-07 14:41 250 5 gusting 13 -3.3
2016-Feb-07 14:31 232 5 gusting 11 -3.3
2016-Feb-07 14:21 267 6 gusting 11 -3.3
2016-Feb-07 14:11 263 8 gusting 14 -3.3
2016-Feb-07 14:01 220 6 gusting 13 -3.3
2016-Feb-07 13:51 229 6 gusting 12 -3.3
2016-Feb-07 13:41 267 2 gusting 9 -3.3
2016-Feb-07 13:31 275 6 gusting 12 -3.9
2016-Feb-07 13:21 259 6 gusting 13 -3.9
2016-Feb-07 13:11 256 8 gusting 12 -3.9
2016-Feb-07 13:01 261 4 gusting 8 -3.9
2016-Feb-07 12:51 272 2 gusting 9 -3.9
2016-Feb-07 12:41 267 4 gusting 8 -3.9
2016-Feb-07 12:31 257 3 gusting 6 -4.4
2016-Feb-07 12:21 269 4 gusting 9 -4.4
2016-Feb-07 12:11 232 3 gusting 6 -4.4
2016-Feb-07 12:01 279 2 gusting 6 -4.4
2016-Feb-07 11:51 299 0 gusting 3 -4.4
2016-Feb-07 11:41 297 1 gusting 10 -4.4
2016-Feb-07 11:31 268 3 gusting 10 -4.4
2016-Feb-07 11:21 245 2 gusting 7 -5.0
2016-Feb-07 11:11 260 3 gusting 6 -5.0
2016-Feb-07 11:01 288 1 gusting 8 -5.0
2016-Feb-07 10:51 267 4 gusting 11 -5.0
2016-Feb-07 10:41 286 6 gusting 10 -5.6
2016-Feb-07 10:31 265 5 gusting 8 -5.6
2016-Feb-07 10:21 277 5 gusting 12 -5.0
2016-Feb-07 10:11 260 3 gusting 10 -5.0
2016-Feb-07 10:01 277 6 gusting 11 -5.0
2016-Feb-07 09:51 201 6 gusting 13 -5.0
2016-Feb-07 09:41 234 6 gusting 11 -5.0
2016-Feb-07 09:31 246 5 gusting 13 -5.0
2016-Feb-07 09:21 248 3 gusting 13 -5.0
2016-Feb-07 09:11 289 5 gusting 13 -5.0
2016-Feb-07 09:01 259 6 gusting 12 -5.6
2016-Feb-07 08:51 261 6 gusting 12 -5.6
2016-Feb-07 08:41 268 6 gusting 11 -5.6
2016-Feb-07 08:31 265 6 gusting 10 -5.0
2016-Feb-07 08:21 255 7 gusting 12 -5.0
2016-Feb-07 08:11 218 6 gusting 12 -5.0
2016-Feb-07 08:01 260 5 gusting 12 -5.0
2016-Feb-07 07:51 223 6 gusting 13 -5.6
2016-Feb-07 07:41 241 5 gusting 13 -5.6
2016-Feb-07 07:31 290 6 gusting 15 -5.6
2016-Feb-07 07:21 242 6 gusting 12 -5.6
2016-Feb-07 07:11 288 7 gusting 12 -5.6
2016-Feb-07 07:01 288 6 gusting 15 -5.6
2016-Feb-07 06:51 269 10 gusting 18 -5.6
2016-Feb-07 06:41 277 6 gusting 14 -5.6
2016-Feb-07 06:31 261 4 gusting 15 -5.6
2016-Feb-07 06:21 271 8 gusting 15 -5.6
2016-Feb-07 06:11 287 6 gusting 14 -5.6
2016-Feb-07 06:01 293 5 gusting 13 -5.6
2016-Feb-07 05:51 261 5 gusting 13 -5.6
2016-Feb-07 05:41 282 6 gusting 13 -5.6
2016-Feb-07 05:31 297 6 gusting 15 -5.6
2016-Feb-07 05:21 217 6 gusting 12 -5.6
2016-Feb-07 05:11 302 9 gusting 15 -5.6
2016-Feb-07 05:01 248 8 gusting 13 -5.6
2016-Feb-07 04:51 281 8 gusting 18 -5.0
2016-Feb-07 04:41 277 7 gusting 15 -5.0
2016-Feb-07 04:31 260 8 gusting 16 -5.0
2016-Feb-07 04:21 271 8 gusting 18 -5.0
2016-Feb-07 04:11 253 11 gusting 18 -5.0
2016-Feb-07 04:01 254 10 gusting 19 -5.0
2016-Feb-07 03:51 225 7 gusting 15 -5.0
2016-Feb-07 03:41 266 6 gusting 17 -5.0
2016-Feb-07 03:31 225 10 gusting 16 -5.0
2016-Feb-07 03:21 255 8 gusting 21 -5.0
2016-Feb-07 03:11 290 11 gusting 25 -5.0
2016-Feb-07 03:01 254 4 gusting 19 -5.0
2016-Feb-07 02:51 275 10 gusting 24 -5.0
2016-Feb-07 02:41 289 9 gusting 19 -5.0
2016-Feb-07 02:31 236 7 gusting 19 -5.0
2016-Feb-07 02:21 267 8 gusting 19 -5.0
2016-Feb-07 02:11 227 11 gusting 19 -5.0
2016-Feb-07 02:01 287 10 gusting 19 -4.4
2016-Feb-07 01:51 297 9 gusting 21 -4.4
2016-Feb-07 01:41 251 11 gusting 19 -4.4
2016-Feb-07 01:31 281 11 gusting 19 -4.4
2016-Feb-07 01:21 285 7 gusting 16 -3.9
2016-Feb-07 01:11 229 7 gusting 21 -3.9
2016-Feb-07 01:01 275 7 gusting 19 -3.9
2016-Feb-07 00:51 260 9 gusting 19 -3.9
2016-Feb-07 00:41 260 9 gusting 19 -3.3
2016-Feb-07 00:31 264 9 gusting 18 -3.3
2016-Feb-07 00:21 286 6 gusting 19 -3.3
2016-Feb-07 00:11 294 11 gusting 22 -3.3
2016-Feb-07 00:01 246 10 gusting 21 -3.3
2016-Feb-06 23:51 261 13 gusting 23 -3.3
2016-Feb-06 23:41 251 13 gusting 25 -3.3
2016-Feb-06 23:31 225 12 gusting 19 -2.8
2016-Feb-06 23:21 263 10 gusting 22 -2.8
2016-Feb-06 23:11 267 8 gusting 26 -2.8
2016-Feb-06 23:01 257 13 gusting 27 -2.8
2016-Feb-06 22:51 224 13 gusting 21 -2.8
2016-Feb-06 22:41 284 10 gusting 19 -2.2
2016-Feb-06 22:31 263 10 gusting 23 -2.2
2016-Feb-06 22:21 261 9 gusting 21 -2.2
2016-Feb-06 22:11 225 12 gusting 21 -2.2
2016-Feb-06 22:01 289 6 gusting 26 -2.2
2016-Feb-06 21:51 265 11 gusting 26 -2.2
2016-Feb-06 21:41 283 13 gusting 24 -2.2
2016-Feb-06 21:31 250 11 gusting 22 -2.2
2016-Feb-06 21:21 265 13 gusting 25 -1.7
2016-Feb-06 21:11 273 7 gusting 18 -1.7
2016-Feb-06 21:01 280 10 gusting 21 -1.7
2016-Feb-06 20:51 267 11 gusting 19 -1.7
2016-Feb-06 20:41 272 9 gusting 17 -1.1
2016-Feb-06 20:31 266 11 gusting 19 -1.1
2016-Feb-06 20:21 271 8 gusting 20 -1.1
2016-Feb-06 20:11 272 11 gusting 19 -0.6
2016-Feb-06 20:01 272 6 gusting 25 -0.6
2016-Feb-06 19:51 262 6 gusting 19 -0.6
2016-Feb-06 19:41 263 11 gusting 19 -0.0
2016-Feb-06 19:31 261 9 gusting 23 -0.0
2016-Feb-06 19:21 302 7 gusting 19 -0.6
2016-Feb-06 19:11 321 3 gusting 21 -0.6
2016-Feb-06 19:01 246 8 gusting 23 -0.0
2016-Feb-06 18:51 301 7 gusting 19 -0.0
2016-Feb-06 18:41 286 6 gusting 17 -0.0
2016-Feb-06 18:31 230 7 gusting 14 -0.0
2016-Feb-06 18:21 284 6 gusting 24 -0.0
2016-Feb-06 18:11 264 8 gusting 19 -0.6
2016-Feb-06 18:01 252 11 gusting 23 -0.6
2016-Feb-06 17:51 279 4 gusting 19 -1.1
2016-Feb-06 17:41 235 6 gusting 24 -1.1
2016-Feb-06 17:31 285 10 gusting 24 -1.1
2016-Feb-06 17:21 310 11 gusting 20 -1.1
2016-Feb-06 17:11 296 6 gusting 20 -1.1
2016-Feb-06 17:01 344 10 gusting 19 -1.1
2016-Feb-06 16:51 330 11 gusting 19 -1.1
2016-Feb-06 16:41 256 8 gusting 19 -1.7
2016-Feb-06 16:31 196 7 gusting 15 -1.7
2016-Feb-06 16:21 350 12 gusting 21 -1.7
2016-Feb-06 16:11 340 14 gusting 21 -1.7
2016-Feb-06 16:01 325 5 gusting 18 -1.7
2016-Feb-06 15:51 360 11 gusting 26 -1.7
2016-Feb-06 15:41 322 13 gusting 23 -1.7
2016-Feb-06 15:31 019 10 gusting 21 -1.7
2016-Feb-06 15:21 300 6 gusting 24 -1.7
2016-Feb-06 15:11 267 11 gusting 28 -1.7
2016-Feb-06 15:01 304 6 gusting 32 -1.1
2016-Feb-06 14:51 204 13 gusting 27 -0.6
2016-Feb-06 14:41 096 11 gusting 29 -0.0
2016-Feb-06 14:31 217 11 gusting 30 0.6
2016-Feb-06 14:21 259 5 gusting 28 1.1
2016-Feb-06 14:12 254 8 gusting 13 1.7
2016-Feb-05 22:01 229 1 gusting 2 2.2
2016-Feb-05 21:51 229 0 gusting 1 2.2
2016-Feb-05 21:41 229 2.2
2016-Feb-05 21:31 229 1 gusting 2 2.2
2016-Feb-05 21:21 229 0 gusting 2 2.2
2016-Feb-05 21:11 229 2.2
2016-Feb-05 21:01 229 2.2